createdAt,value
2023-05-14T00:01:31.146Z,14.39
2023-05-14T00:06:33.062Z,14.26
2023-05-14T00:11:35.024Z,14.18
2023-05-14T00:16:36.910Z,14.12
2023-05-14T00:21:38.930Z,14.07
2023-05-14T00:26:40.834Z,13.98
2023-05-14T00:31:42.855Z,13.90
2023-05-14T00:36:44.846Z,13.82
2023-05-14T00:41:46.658Z,13.77
2023-05-14T00:46:48.939Z,13.68
2023-05-14T00:51:51.072Z,13.58
2023-05-14T00:56:53.143Z,13.49
2023-05-14T01:01:55.063Z,13.42
2023-05-14T01:07:08.978Z,13.35
2023-05-14T01:12:19.919Z,13.28
2023-05-14T01:17:23.147Z,13.18
2023-05-14T01:22:25.019Z,13.08
2023-05-14T01:27:38.764Z,13.03
2023-05-14T01:32:41.474Z,13.01
2023-05-14T01:37:44.325Z,12.99
2023-05-14T01:42:48.268Z,12.92
2023-05-14T01:47:50.788Z,12.88
2023-05-14T01:52:56.781Z,12.85
2023-05-14T01:57:58.921Z,12.86
2023-05-14T02:03:00.838Z,12.90
2023-05-14T02:08:02.869Z,12.96
2023-05-14T02:13:04.817Z,13.02
2023-05-14T02:18:06.745Z,13.06
2023-05-14T02:23:08.637Z,13.07
2023-05-14T02:28:10.583Z,13.21
2023-05-14T02:33:13.533Z,13.28
2023-05-14T02:38:15.619Z,13.35
2023-05-14T02:43:17.467Z,13.41
2023-05-14T02:48:19.440Z,13.49
2023-05-14T02:53:21.400Z,13.58
2023-05-14T02:58:26.471Z,13.64
2023-05-14T03:03:30.741Z,13.76
2023-05-14T03:08:33.223Z,13.85
2023-05-14T03:13:35.173Z,13.94
2023-05-14T03:18:37.118Z,14.03
2023-05-14T03:23:39.069Z,14.14
2023-05-14T03:28:40.993Z,14.24
2023-05-14T03:33:42.926Z,14.34
2023-05-14T03:38:44.812Z,14.43
2023-05-14T03:43:46.685Z,14.56
2023-05-14T03:48:48.527Z,14.71
2023-05-14T03:53:50.769Z,14.85
2023-05-14T03:58:52.969Z,14.98
2023-05-14T04:03:55.171Z,15.16
2023-05-14T04:08:57.208Z,15.41
2023-05-14T04:13:59.160Z,15.61
2023-05-14T04:19:03.952Z,15.82
2023-05-14T04:24:06.352Z,16.02
2023-05-14T04:29:08.252Z,16.09
2023-05-14T04:34:10.179Z,16.16
2023-05-14T04:39:12.647Z,16.30
2023-05-14T04:44:14.591Z,16.38
2023-05-14T04:49:16.491Z,16.45
2023-05-14T04:54:18.366Z,16.50
2023-05-14T04:59:20.361Z,16.59
2023-05-14T05:04:24.111Z,16.72
2023-05-14T05:09:25.958Z,16.77
2023-05-14T05:14:27.801Z,16.91
2023-05-14T05:19:42.520Z,17.42
2023-05-14T05:24:46.218Z,19.12
2023-05-14T05:29:48.641Z,20.69
2023-05-14T05:34:52.070Z,22.13
2023-05-14T05:39:54.192Z,23.42
2023-05-14T05:44:56.418Z,24.64
2023-05-14T05:49:58.227Z,25.84
2023-05-14T05:55:00.133Z,26.97
2023-05-14T06:00:09.417Z,27.14
2023-05-14T06:05:14.729Z,27.55
2023-05-14T06:10:16.591Z,28.57
2023-05-14T06:15:18.676Z,29.74
2023-05-14T06:20:20.592Z,30.82
2023-05-14T06:25:23.006Z,31.46
2023-05-14T06:30:25.145Z,32.10
2023-05-14T06:35:27.236Z,33.24
2023-05-14T06:40:29.215Z,33.91
2023-05-14T06:45:33.121Z,33.89
2023-05-14T06:50:35.086Z,33.99
2023-05-14T06:55:36.939Z,33.36
2023-05-14T07:00:38.882Z,33.02
2023-05-14T07:05:41.383Z,30.86
2023-05-14T07:10:43.292Z,28.52
2023-05-14T07:15:45.149Z,26.81
2023-05-14T07:20:46.977Z,25.99
2023-05-14T07:25:48.835Z,26.13
2023-05-14T07:30:50.747Z,26.36
2023-05-14T07:35:52.784Z,25.96
2023-05-14T07:40:54.929Z,25.70
2023-05-14T07:45:56.836Z,25.78
2023-05-14T07:50:58.757Z,25.27
2023-05-14T07:56:00.710Z,24.67
2023-05-14T08:01:04.306Z,24.13
2023-05-14T08:06:06.361Z,23.87
2023-05-14T08:11:08.336Z,23.63
2023-05-14T08:16:10.270Z,23.65
2023-05-14T08:21:12.109Z,23.96
2023-05-14T08:26:13.936Z,24.21
2023-05-14T08:31:15.819Z,24.48
2023-05-14T08:36:17.783Z,25.08
2023-05-14T08:41:19.900Z,25.64
2023-05-14T08:46:23.595Z,25.78
2023-05-14T08:51:26.635Z,26.23
2023-05-14T08:56:30.677Z,29.12
2023-05-14T09:01:33.040Z,29.80
2023-05-14T09:06:38.035Z,29.44
2023-05-14T09:11:43.652Z,28.62
2023-05-14T09:16:46.340Z,28.01
2023-05-14T09:21:49.263Z,27.94
2023-05-14T09:26:52.896Z,29.39
2023-05-14T09:31:55.430Z,31.81
2023-05-14T09:36:58.240Z,31.69
2023-05-14T09:42:00.196Z,30.39
2023-05-14T09:47:02.151Z,30.09
2023-05-14T09:52:06.522Z,30.68
2023-05-14T09:57:08.443Z,31.03
2023-05-14T10:02:16.924Z,30.99
2023-05-14T10:07:21.200Z,31.68
2023-05-14T10:12:23.485Z,31.22
2023-05-14T10:17:29.874Z,30.26
2023-05-14T10:22:34.051Z,29.48
2023-05-14T10:27:36.278Z,29.78
2023-05-14T10:32:38.443Z,31.00
2023-05-14T10:37:40.320Z,31.90
2023-05-14T10:42:46.428Z,33.40
2023-05-14T10:47:48.933Z,32.68
2023-05-14T10:52:51.598Z,30.43
2023-05-14T10:57:53.445Z,28.64
2023-05-14T11:02:57.016Z,27.24
2023-05-14T11:07:59.686Z,26.47
2023-05-14T11:13:01.698Z,25.96
2023-05-14T11:18:03.607Z,26.06
2023-05-14T11:23:05.457Z,26.66
2023-05-14T11:28:07.482Z,27.54
2023-05-14T11:33:09.455Z,28.56
2023-05-14T11:38:17.965Z,29.71
2023-05-14T11:43:19.916Z,29.34
2023-05-14T11:48:22.488Z,28.36
2023-05-14T11:53:31.120Z,27.82
2023-05-14T11:58:33.862Z,27.53
2023-05-14T12:03:35.961Z,27.20
2023-05-14T12:08:38.041Z,27.02
2023-05-14T12:13:40.823Z,27.15
2023-05-14T12:18:43.001Z,27.12
2023-05-14T12:23:44.933Z,27.35
2023-05-14T12:28:47.774Z,27.84
2023-05-14T12:33:49.597Z,28.05
2023-05-14T12:38:57.101Z,27.95
2023-05-14T12:43:59.560Z,27.84
2023-05-14T12:49:01.379Z,27.68
2023-05-14T12:54:03.275Z,27.39
2023-05-14T12:59:05.398Z,27.08
2023-05-14T13:04:08.077Z,26.85
2023-05-14T13:09:10.076Z,26.46
2023-05-14T13:14:11.960Z,25.98
2023-05-14T13:19:15.020Z,25.48
2023-05-14T13:24:17.620Z,25.27
2023-05-14T13:29:19.508Z,25.10
2023-05-14T13:34:21.446Z,25.24
2023-05-14T13:39:27.282Z,25.49
2023-05-14T13:44:29.567Z,25.95
2023-05-14T13:49:31.517Z,26.26
2023-05-14T13:54:33.351Z,26.19
2023-05-14T13:59:35.749Z,25.66
2023-05-14T14:04:37.628Z,25.11
2023-05-14T14:09:39.560Z,24.83
2023-05-14T14:14:41.440Z,24.52
2023-05-14T14:19:43.307Z,24.22
2023-05-14T14:24:45.227Z,24.02
2023-05-14T14:29:47.128Z,23.71
2023-05-14T14:34:48.947Z,23.49
2023-05-14T14:39:50.785Z,23.36
2023-05-14T14:44:52.624Z,23.33
2023-05-14T14:49:54.470Z,23.21
2023-05-14T14:54:56.632Z,23.05
2023-05-14T15:05:00.662Z,22.51
2023-05-14T15:10:02.487Z,22.23
2023-05-14T15:15:05.970Z,21.96
2023-05-14T15:20:09.036Z,21.70
2023-05-14T15:25:11.114Z,21.66
2023-05-14T15:30:13.461Z,21.67
2023-05-14T15:35:15.448Z,21.60
2023-05-14T15:40:18.962Z,21.58
2023-05-14T15:45:21.172Z,21.53
2023-05-14T15:50:23.186Z,21.47
2023-05-14T15:55:25.192Z,21.36
2023-05-14T16:00:27.233Z,21.13
2023-05-14T16:05:29.536Z,21.04
2023-05-14T16:10:31.453Z,21.03
2023-05-14T16:15:33.425Z,20.80
2023-05-14T16:20:35.474Z,20.60
2023-05-14T16:25:38.340Z,20.25
2023-05-14T16:30:40.267Z,19.83
2023-05-14T16:35:42.219Z,19.42
2023-05-14T16:40:44.038Z,19.02
2023-05-14T16:45:45.984Z,18.66
2023-05-14T16:50:47.943Z,18.32
2023-05-14T16:55:49.849Z,18.02
2023-05-14T17:00:51.755Z,17.75
2023-05-14T17:05:55.072Z,17.51
2023-05-14T17:10:57.026Z,17.33
2023-05-14T17:15:59.083Z,17.14
2023-05-14T17:21:01.148Z,16.96
2023-05-14T17:26:03.116Z,16.79
2023-05-14T17:31:05.023Z,16.61
2023-05-14T17:36:07.173Z,16.48
2023-05-14T17:41:09.813Z,16.32
2023-05-14T17:46:11.671Z,16.13
2023-05-14T17:51:13.685Z,15.97
2023-05-14T17:56:17.652Z,15.81
2023-05-14T18:01:19.543Z,15.65
2023-05-14T18:06:21.559Z,15.48
2023-05-14T18:11:23.369Z,15.35
2023-05-14T18:16:25.394Z,15.23
2023-05-14T18:21:27.298Z,15.13
2023-05-14T18:26:29.252Z,15.04
2023-05-14T18:31:31.295Z,14.94
2023-05-14T18:36:33.302Z,14.81
2023-05-14T18:41:35.344Z,14.73
2023-05-14T18:46:37.296Z,14.65
2023-05-14T18:51:39.158Z,14.58
2023-05-14T18:56:46.046Z,14.49
2023-05-14T19:01:49.277Z,14.45
2023-05-14T19:06:51.190Z,14.38
2023-05-14T19:11:53.090Z,14.30
2023-05-14T19:16:54.993Z,14.23
2023-05-14T19:21:56.905Z,14.17
2023-05-14T19:26:58.810Z,14.06
2023-05-14T19:32:00.910Z,13.97
2023-05-14T19:37:02.924Z,13.89
2023-05-14T19:42:04.877Z,13.79
2023-05-14T19:47:07.522Z,13.69
2023-05-14T19:52:11.741Z,13.65
2023-05-14T19:57:13.537Z,13.58
2023-05-14T20:02:18.610Z,13.52
2023-05-14T20:07:20.571Z,13.48
2023-05-14T20:12:22.381Z,13.42
2023-05-14T20:17:24.966Z,13.39
2023-05-14T20:22:26.870Z,13.33
2023-05-14T20:27:28.721Z,13.29
2023-05-14T20:32:30.717Z,13.24
2023-05-14T20:37:33.184Z,13.18
2023-05-14T20:42:36.499Z,13.13
2023-05-14T20:47:38.457Z,13.05
2023-05-14T20:52:40.484Z,13.01
2023-05-14T20:57:43.485Z,12.94
2023-05-14T21:02:45.789Z,12.87
2023-05-14T21:07:48.105Z,12.81
2023-05-14T21:12:50.045Z,12.74
2023-05-14T21:17:51.948Z,12.67
2023-05-14T21:22:53.866Z,12.62
2023-05-14T21:27:55.773Z,12.57
2023-05-14T21:32:57.695Z,12.54
2023-05-14T21:37:59.607Z,12.51
2023-05-14T21:43:01.586Z,12.45
2023-05-14T21:48:03.666Z,12.41
2023-05-14T21:53:05.672Z,12.37
2023-05-14T21:58:07.632Z,12.31
2023-05-14T22:03:09.651Z,12.26
2023-05-14T22:08:11.702Z,12.16
2023-05-14T22:13:13.517Z,12.07
2023-05-14T22:18:15.787Z,12.00
2023-05-14T22:23:17.637Z,11.91
2023-05-14T22:28:19.582Z,11.86
2023-05-14T22:33:21.404Z,11.79
2023-05-14T22:38:23.266Z,11.71
2023-05-14T22:43:25.192Z,11.69
2023-05-14T22:48:27.154Z,11.66
2023-05-14T22:53:29.026Z,11.60
2023-05-14T22:58:30.862Z,11.53
2023-05-14T23:03:32.745Z,11.47
2023-05-14T23:08:34.731Z,11.41
2023-05-14T23:13:36.674Z,11.39
2023-05-14T23:18:38.623Z,11.33
2023-05-14T23:23:40.720Z,11.26
2023-05-14T23:28:42.509Z,11.20
2023-05-14T23:33:44.819Z,11.12
2023-05-14T23:38:47.153Z,11.04
2023-05-14T23:43:49.301Z,10.97
2023-05-14T23:48:52.223Z,10.91
2023-05-14T23:53:58.329Z,10.84
2023-05-14T23:59:00.270Z,10.76
